Alexandria Borg El Arab, Egypt

5:58 AM EET on August 21, 2014 (GMT +0200)
Borg El Arab International | Change Station
CLOSE
Current Station
Airport
Location: Alexandria Borg El Arab,
Elevation: 174 ft
Nearby Weather Stations

Elev 174 ft 30.92 °N, 29.70 °E | Updated 58 minutes ago

Clear
Clear
75 °F
Feels Like 75 °F
N
6
Wind Variable Wind from NNW

Today
High -- | Low -- °F
--% Chance of Precip.
Yesterday
High -- | Low -- °F
Precip. -- in
5:30 AM 6:37 PM
Waning Crescent, 17% visible
Pressure 29.92 in
Visibility -9999.0 miles
Clouds
Dew Point 70 °F
Humidity 83%
Rainfall 0.00 in
Snow Depth Not available.
UV Not available.
Pollen Not available.
Air Quality Not available.
Flu Activity Not available.
METAR HEBA 210300Z 34005KT CAVOK 24/21 Q1013 NOSIG

More Conditions Fewer Conditions

Pressure 29.92 in
Visibility -9999.0 miles
Clouds
Dew Point 70 °F
Humidity 83%
Rainfall 0.00 in
Snow Depth Not available.
UV Not available.
Pollen Not available.
Air Quality Not available.
Flu Activity Not available.
METAR HEBA 210300Z 34005KT CAVOK 24/21 Q1013 NOSIG

More Conditions Fewer Conditions

10-Day Weather Forecast

Almanac

Astronomy

Aug. 21, 2014 Rise Set
Actual Time 5:30 AM EET 6:37 PM EET
Civil Twilight 5:05 AM EET 7:02 PM EET
Nautical Twilight 4:35 AM EET 7:32 PM EET
Astronomical Twilight 4:05 AM EET 8:03 PM EET
Moon 1:51 AM EET 3:46 PM EET
Length of Visible Light 13h 56m
Length of Day
13h 06m
Tomorrow will be 1m 42s shorter.
Waning Crescent, 17% of the Moon is Illuminated
Aug 20
Waning Crescent
Aug 25
New
Sep 2
First Quarter
Sep 8
Full
Sep 15
Last Quarter

Yesterday's Extremes

Country Highs Country Lows

Community

WunderPhotos

Upload Photos

1,745,851 photos uploaded!

Nearby

Snow Depth

Not available.

Earthquake Activity

City Distance Mag. Time & Date
No recent earthquake activity has been reported nearby.
Minimum magnitude displayed is 2.5.

Coastal Water Temperatures

Place Temperature
No Stations Reporting

Nearby Weather Stations